Time;durP1;ratioP1;P1;durP2;ratioP2;P2;SDS_P1;SDS_P2;PMS_P1;PMS_P2;Temp;Humidity;BMP_temperature;BMP_pressure;BME280_temperature;BME280_humidity;BME280_pressure;Samples;Min_cycle;Max_cycle;Signal;HPM_P1;HPM_P2
2022/02/08 00:00:59;;;;;;;6.32;1.50;;;4.60;99.90;;;;;;5052029;28;20166;-75
2022/02/08 00:03:25;;;;;;;7.30;1.63;;;4.80;99.90;;;;;;5052039;28;20211;-75
2022/02/08 00:08:35;;;;;;;9.98;1.90;;;4.50;99.90;;;;;;5051762;28;20055;-75
2022/02/08 00:11:01;;;;;;;8.35;1.85;;;4.50;99.90;;;;;;5050896;28;20029;-75
2022/02/08 00:13:26;;;;;;;6.50;1.52;;;4.60;99.90;;;;;;5051905;28;20021;-75
2022/02/08 00:15:52;;;;;;;5.03;1.42;;;4.80;99.90;;;;;;5050017;28;20086;-75
2022/02/08 00:18:17;;;;;;;3.78;1.25;;;4.60;99.90;;;;;;5050531;28;20059;-76
2022/02/08 00:20:43;;;;;;;7.25;1.42;;;4.60;99.90;;;;;;5050806;28;20039;-75
2022/02/08 00:23:09;;;;;;;8.93;1.77;;;4.80;99.90;;;;;;5050656;28;20028;-75
2022/02/08 00:25:34;;;;;;;8.10;1.85;;;4.60;99.90;;;;;;5051270;28;20427;-75
2022/02/08 00:28:00;;;;;;;3.03;1.17;;;4.70;99.90;;;;;;5050400;28;20083;-74
2022/02/08 00:30:25;;;;;;;7.63;1.50;;;4.60;99.90;;;;;;5050813;28;20401;-75
2022/02/08 00:32:51;;;;;;;11.82;1.92;;;4.70;99.90;;;;;;5051647;28;20024;-75
2022/02/08 00:35:17;;;;;;;8.20;2.75;;;4.80;99.90;;;;;;5051060;28;20777;-74
2022/02/08 00:37:42;;;;;;;8.70;1.63;;;5.40;99.90;;;;;;5051302;28;20036;-75
2022/02/08 00:40:08;;;;;;;6.13;1.48;;;5.00;99.90;;;;;;5050716;28;20387;-74
2022/02/08 00:42:35;;;;;;;5.93;1.42;;;4.60;99.90;;;;;;5050009;28;20044;-74
2022/02/08 00:47:42;;;;;;;6.85;1.65;;;5.10;99.90;;;;;;5031605;28;20026;-75
2022/02/08 00:50:10;;;;;;;7.22;2.03;;;4.60;99.90;;;;;;5031405;28;20017;-75
2022/02/08 00:52:38;;;;;;;4.78;1.33;;;4.60;99.90;;;;;;5051178;28;20021;-74
2022/02/08 00:55:07;;;;;;;8.02;1.65;;;4.90;99.90;;;;;;5050928;28;20016;-75
2022/02/08 00:57:33;;;;;;;9.10;2.10;;;4.60;99.90;;;;;;5049963;28;20024;-74
2022/02/08 00:59:59;;;;;;;6.97;1.77;;;5.70;99.90;;;;;;5032358;28;20124;-74
2022/02/08 01:02:25;;;;;;;5.00;1.50;;;4.50;99.90;;;;;;5049947;28;20104;-75
2022/02/08 01:04:57;;;;;;;11.20;2.92;;;4.60;99.90;;;;;;5051230;28;20040;-74
2022/02/08 01:07:23;;;;;;;9.13;1.30;;;4.50;99.90;;;;;;5031221;28;20017;-74
2022/02/08 01:09:55;;;;;;;6.38;1.45;;;4.50;99.90;;;;;;5048025;28;20044;-75
2022/02/08 01:12:23;;;;;;;10.10;1.58;;;4.50;99.90;;;;;;5051265;28;20017;-74
2022/02/08 01:14:51;;;;;;;6.38;1.77;;;4.50;99.90;;;;;;5049596;28;20037;-75
2022/02/08 01:17:18;;;;;;;6.80;1.77;;;4.40;99.90;;;;;;5050699;28;20465;-75
2022/02/08 01:19:59;;;;;;;3.33;1.45;;;4.60;99.90;;;;;;5029767;28;20061;-75
2022/02/08 01:22:25;;;;;;;5.28;1.40;;;4.50;99.90;;;;;;5049480;28;20025;-74
2022/02/08 01:24:51;;;;;;;5.65;2.30;;;4.40;99.90;;;;;;5050110;28;20091;-75
2022/02/08 01:27:22;;;;;;;9.60;1.73;;;5.50;99.90;;;;;;5050754;28;20064;-75
2022/02/08 01:37:42;;;;;;;3.65;1.55;;;5.40;99.90;;;;;;5050514;28;20481;-75
2022/02/08 01:48:11;;;;;;;7.63;3.05;;;4.80;99.90;;;;;;5050867;28;20116;-75
2022/02/08 01:50:38;;;;;;;6.68;1.70;;;4.00;99.90;;;;;;5049973;28;20033;-74
2022/02/08 01:53:06;;;;;;;10.32;1.58;;;3.90;99.90;;;;;;5050671;28;20082;-75
2022/02/08 01:55:33;;;;;;;6.25;1.50;;;3.90;99.90;;;;;;5053606;28;20017;-75
2022/02/08 01:58:02;;;;;;;8.52;1.90;;;3.90;99.90;;;;;;5054309;28;20029;-75
2022/02/08 02:00:27;;;;;;;4.57;1.45;;;3.90;99.90;;;;;;5054089;28;20025;-75
2022/02/08 02:02:53;;;;;;;10.93;1.73;;;3.90;99.90;;;;;;5054362;28;20021;-75
2022/02/08 02:05:19;;;;;;;8.18;1.80;;;4.30;99.90;;;;;;5053825;28;20150;-74
2022/02/08 02:07:49;;;;;;;7.30;1.60;;;3.80;99.90;;;;;;5053864;28;20515;-74
2022/02/08 02:10:20;;;;;;;10.80;2.92;;;3.90;99.90;;;;;;5052100;28;20029;-74
2022/02/08 02:12:55;;;;;;;7.40;1.38;;;3.90;99.90;;;;;;5054180;28;20025;-75
2022/02/08 02:15:22;;;;;;;7.38;2.22;;;4.10;99.90;;;;;;5052153;28;20111;-75
2022/02/08 02:17:48;;;;;;;8.52;1.75;;;3.60;99.90;;;;;;5053997;28;20025;-74
2022/02/08 02:20:14;;;;;;;8.52;1.77;;;3.60;99.90;;;;;;5053302;28;20025;-75
2022/02/08 02:22:39;;;;;;;9.48;1.70;;;3.80;99.90;;;;;;5053816;28;20053;-75
2022/02/08 02:25:05;;;;;;;8.30;2.00;;;3.80;99.90;;;;;;5052390;28;20033;-75
2022/02/08 02:27:31;;;;;;;5.80;1.70;;;3.70;99.90;;;;;;5053919;28;20450;-74
2022/02/08 02:29:57;;;;;;;6.68;1.40;;;3.80;99.90;;;;;;5053047;28;20101;-75
2022/02/08 02:32:22;;;;;;;6.22;1.42;;;3.80;99.90;;;;;;5053655;28;20111;-75
2022/02/08 02:34:50;;;;;;;6.32;2.08;;;4.00;99.90;;;;;;5053602;28;20033;-75
2022/02/08 02:37:17;;;;;;;4.72;1.55;;;4.90;99.90;;;;;;5052895;28;20021;-74
2022/02/08 02:39:42;;;;;;;5.57;1.40;;;3.70;99.90;;;;;;5052747;28;20025;-75
2022/02/08 02:42:12;;;;;;;6.60;2.35;;;4.60;99.90;;;;;;5053571;28;20409;-75
2022/02/08 02:44:39;;;;;;;6.63;1.40;;;4.10;99.90;;;;;;5052001;28;20059;-74
2022/02/08 02:47:04;;;;;;;5.57;1.58;;;5.20;99.90;;;;;;5053120;28;20025;-75
2022/02/08 02:49:30;;;;;;;8.73;1.85;;;4.20;99.90;;;;;;5051385;28;20146;-74
2022/02/08 02:51:56;;;;;;;7.82;1.90;;;4.20;99.90;;;;;;5051906;28;20557;-75
2022/02/08 02:54:22;;;;;;;8.85;2.30;;;4.20;99.90;;;;;;5053474;28;20021;-74
2022/02/08 02:56:49;;;;;;;4.30;1.30;;;5.60;99.90;;;;;;5053086;28;20025;-75
2022/02/08 02:59:17;;;;;;;9.25;1.15;;;4.30;99.90;;;;;;5052545;28;20108;-75
2022/02/08 03:04:55;;;;;;;4.60;1.58;;;4.20;99.90;;;;;;5053017;28;20043;-75
2022/02/08 03:18:32;;;;;;;5.97;1.48;;;5.50;99.90;;;;;;5053169;28;20398;-75
2022/02/08 03:20:56;;;;;;;7.88;2.95;;;4.50;99.90;;;;;;5052264;28;20034;-75
2022/02/08 03:23:22;;;;;;;5.97;1.48;;;4.60;99.90;;;;;;5053132;28;20029;-75
2022/02/08 03:25:47;;;;;;;6.45;1.30;;;4.70;99.90;;;;;;5051110;28;20115;-75
2022/02/08 03:28:13;;;;;;;11.05;1.63;;;5.40;99.90;;;;;;5052823;28;20405;-74
2022/02/08 03:30:39;;;;;;;7.28;1.70;;;4.50;99.90;;;;;;5051683;28;20106;-76
2022/02/08 03:33:07;;;;;;;7.05;1.33;;;4.60;99.90;;;;;;5052809;28;20021;-75
2022/02/08 03:35:33;;;;;;;4.15;1.52;;;4.70;99.90;;;;;;5052262;28;20040;-74
2022/02/08 03:38:02;;;;;;;5.05;1.20;;;4.60;99.90;;;;;;5052288;28;20417;-75
2022/02/08 03:40:39;;;;;;;5.20;1.73;;;4.50;99.90;;;;;;5053276;28;20043;-75
2022/02/08 03:43:14;;;;;;;5.05;1.35;;;4.90;99.90;;;;;;5052258;28;20036;-75
2022/02/08 03:45:47;;;;;;;6.43;1.50;;;4.80;99.90;;;;;;5051908;28;20050;-75
2022/02/08 03:48:16;;;;;;;8.75;1.25;;;4.80;99.90;;;;;;5052111;28;20102;-75
2022/02/08 03:50:44;;;;;;;6.93;1.30;;;5.00;99.90;;;;;;5051594;28;20108;-75
2022/02/08 03:53:10;;;;;;;8.82;1.65;;;5.00;99.90;;;;;;5052009;28;20471;-75
2022/02/08 03:55:35;;;;;;;4.18;1.35;;;5.10;99.90;;;;;;5051761;28;20151;-75
2022/02/08 03:58:01;;;;;;;11.38;3.42;;;5.80;99.90;;;;;;5050860;28;20389;-75
2022/02/08 04:00:31;;;;;;;7.85;1.58;;;5.30;99.90;;;;;;5050105;28;20029;-75
2022/02/08 04:02:58;;;;;;;6.78;1.20;;;5.30;99.90;;;;;;5052270;28;20098;-76
2022/02/08 04:05:33;;;;;;;5.85;1.52;;;5.60;99.90;;;;;;5050415;28;20021;-75
2022/02/08 04:08:03;;;;;;;7.80;1.50;;;6.00;99.90;;;;;;5051766;28;20021;-75
2022/02/08 04:10:30;;;;;;;10.88;1.50;;;5.00;99.90;;;;;;5051289;28;20025;-75
2022/02/08 04:13:14;;;;;;;5.97;1.10;;;5.10;99.90;;;;;;5051236;28;20032;-75
2022/02/08 04:45:19;;;;;;;8.27;1.48;;;4.80;99.90;;;;;;5051181;28;20053;-75
2022/02/08 04:48:00;;;;;;;5.35;1.50;;;4.70;99.90;;;;;;5031688;28;20033;-76
2022/02/08 04:50:28;;;;;;;8.38;1.38;;;5.70;99.90;;;;;;5047452;28;20037;-75
2022/02/08 04:52:59;;;;;;;8.75;1.92;;;4.90;99.90;;;;;;5051515;28;20037;-75
2022/02/08 04:58:54;;;;;;;8.13;1.35;;;4.80;99.90;;;;;;5050415;28;20033;-75
2022/02/08 05:01:06;;;;;;;4.38;1.23;;;6.10;99.90;;;;;;5042849;28;20126;-75
2022/02/08 05:37:16;;;;;;;6.18;1.35;;;5.90;99.90;;;;;;5054915;28;20036;-75
2022/02/08 05:44:40;;;;;;;6.75;1.60;;;5.70;99.90;;;;;;5055253;28;20098;-75
2022/02/08 05:47:07;;;;;;;5.13;1.00;;;6.80;99.90;;;;;;5054470;28;20021;-75
2022/02/08 05:49:49;;;;;;;6.68;1.42;;;5.80;99.90;;;;;;5054261;28;20029;-75
2022/02/08 05:54:42;;;;;;;4.53;1.50;;;5.90;99.90;;;;;;5054849;28;20760;-75
2022/02/08 05:57:09;;;;;;;6.13;1.95;;;5.70;99.90;;;;;;5054195;28;20048;-75
2022/02/08 05:59:35;;;;;;;3.53;1.08;;;5.80;99.90;;;;;;5054063;28;20071;-75
2022/02/08 06:02:01;;;;;;;6.50;1.35;;;5.80;99.90;;;;;;5054393;28;20033;-75
2022/02/08 06:04:27;;;;;;;10.25;1.58;;;5.80;99.90;;;;;;5054247;28;20568;-75
2022/02/08 06:06:53;;;;;;;6.28;1.33;;;5.80;99.90;;;;;;5053868;28;20077;-75
2022/02/08 06:09:20;;;;;;;7.10;1.40;;;5.80;99.90;;;;;;5052211;28;20057;-75
2022/02/08 06:11:46;;;;;;;6.50;1.13;;;6.60;99.90;;;;;;5054440;28;20382;-75
2022/02/08 06:14:11;;;;;;;8.30;1.08;;;6.00;99.90;;;;;;5054393;28;20071;-75
2022/02/08 06:16:37;;;;;;;4.60;0.70;;;5.90;99.90;;;;;;5053471;28;20413;-75
2022/02/08 06:19:04;;;;;;;5.45;1.40;;;5.90;99.90;;;;;;5052561;28;20033;-75
2022/02/08 06:21:30;;;;;;;5.80;1.20;;;6.10;99.90;;;;;;5053767;28;20067;-75
2022/02/08 06:23:56;;;;;;;6.38;1.33;;;6.10;99.90;;;;;;5054194;28;20029;-75
2022/02/08 06:26:23;;;;;;;9.38;1.10;;;6.30;99.90;;;;;;5053651;28;20029;-75
2022/02/08 06:28:59;;;;;;;7.47;1.67;;;6.10;99.90;;;;;;5052079;28;20037;-75
2022/02/08 06:31:25;;;;;;;9.50;1.33;;;6.00;99.90;;;;;;5052417;28;20516;-75
2022/02/08 06:33:50;;;;;;;5.53;1.48;;;6.00;99.90;;;;;;5053760;28;20053;-75
2022/02/08 06:36:16;;;;;;;6.10;1.05;;;6.30;99.90;;;;;;5053583;28;20025;-74
2022/02/08 06:38:41;;;;;;;6.05;1.60;;;6.10;99.90;;;;;;5053357;28;20049;-75
2022/02/08 06:41:09;;;;;;;3.35;1.20;;;6.20;99.90;;;;;;5053889;28;20108;-75
2022/02/08 06:43:34;;;;;;;9.23;1.55;;;6.60;99.90;;;;;;5053786;28;20102;-75
2022/02/08 06:46:00;;;;;;;4.13;1.02;;;8.10;99.90;;;;;;5053439;28;20061;-74
2022/02/08 06:48:26;;;;;;;6.78;1.23;;;6.30;99.90;;;;;;5052118;28;20037;-75
2022/02/08 06:50:52;;;;;;;9.80;3.10;;;6.10;99.90;;;;;;5045441;28;20033;-75
2022/02/08 06:53:18;;;;;;;6.72;1.55;;;7.50;99.90;;;;;;5051043;28;20025;-73
2022/02/08 06:55:44;;;;;;;6.18;1.90;;;6.80;99.90;;;;;;5050162;28;20496;-74
2022/02/08 06:58:12;;;;;;;8.38;2.00;;;6.20;99.90;;;;;;5049877;28;20057;-76
2022/02/08 07:00:40;;;;;;;8.65;1.77;;;6.30;99.90;;;;;;5048688;28;20033;-76
2022/02/08 07:03:11;;;;;;;10.13;1.77;;;6.40;99.90;;;;;;5049770;28;20094;-75
2022/02/08 07:05:38;;;;;;;7.53;1.67;;;6.30;99.90;;;;;;5049691;28;20021;-76
2022/02/08 07:08:04;;;;;;;11.73;1.17;;;6.30;99.90;;;;;;5049885;28;20060;-76
2022/02/08 07:10:33;;;;;;;5.00;1.40;;;6.40;99.90;;;;;;5050031;28;20032;-76
2022/02/08 07:12:59;;;;;;;7.35;1.33;;;6.60;99.90;;;;;;5049270;28;20017;-75
2022/02/08 07:15:24;;;;;;;6.15;1.25;;;7.00;99.90;;;;;;5049631;28;20448;-76
2022/02/08 07:17:50;;;;;;;4.30;1.05;;;6.70;99.90;;;;;;5050485;28;20029;-76
2022/02/08 07:20:16;;;;;;;5.57;1.25;;;6.60;99.90;;;;;;5051261;28;20519;-75
2022/02/08 07:22:42;;;;;;;11.27;1.50;;;6.70;99.90;;;;;;5052919;28;20025;-76
2022/02/08 07:25:09;;;;;;;6.00;1.58;;;6.70;99.90;;;;;;5052791;28;20082;-75
2022/02/08 07:27:35;;;;;;;8.10;1.38;;;6.70;99.90;;;;;;5052876;28;20040;-75
2022/02/08 07:30:08;;;;;;;5.50;1.20;;;6.90;99.90;;;;;;5043056;28;20025;-75
2022/02/08 07:32:36;;;;;;;6.68;1.02;;;6.80;99.90;;;;;;5046650;28;20040;-75
2022/02/08 07:41:34;;;;;;;6.85;1.60;;;6.90;99.90;;;;;;5052224;28;20028;-75
2022/02/08 07:43:06;;;;;;;10.35;1.40;;;6.90;99.90;;;;;;5051712;28;20067;-75
2022/02/08 07:45:32;;;;;;;8.95;1.23;;;6.80;99.90;;;;;;5052037;28;20529;-76
2022/02/08 07:47:58;;;;;;;7.45;1.70;;;7.00;99.90;;;;;;5052568;28;20481;-75
2022/02/08 07:50:25;;;;;;;6.40;1.30;;;7.00;99.90;;;;;;5051767;28;20048;-75
2022/02/08 07:52:52;;;;;;;6.72;1.50;;;7.00;99.90;;;;;;5051557;28;20112;-75
2022/02/08 07:55:18;;;;;;;8.15;1.40;;;7.30;99.90;;;;;;5052385;28;20095;-76
2022/02/08 07:57:44;;;;;;;11.00;1.50;;;6.90;99.90;;;;;;5052317;28;20025;-75
2022/02/08 08:00:11;;;;;;;6.65;1.80;;;7.70;99.90;;;;;;5051903;28;20052;-75
2022/02/08 08:02:37;;;;;;;7.22;1.20;;;6.90;99.90;;;;;;5052199;28;20043;-75
2022/02/08 08:05:05;;;;;;;5.35;1.23;;;6.90;99.90;;;;;;5051923;28;20021;-75
2022/02/08 08:07:31;;;;;;;9.30;2.55;;;6.90;99.90;;;;;;5051854;28;20127;-75
2022/02/08 08:10:00;;;;;;;8.80;1.67;;;6.80;99.90;;;;;;5051681;28;20462;-75
2022/02/08 08:12:26;;;;;;;5.53;1.00;;;6.80;99.90;;;;;;5051863;28;20048;-75
2022/02/08 08:14:52;;;;;;;5.93;1.35;;;6.90;99.90;;;;;;5051923;28;20033;-75
2022/02/08 08:19:53;;;;;;;6.28;1.63;;;8.10;99.90;;;;;;5051378;28;20394;-75
2022/02/08 08:22:18;;;;;;;10.20;1.42;;;7.10;99.90;;;;;;5051650;28;20025;-75
2022/02/08 08:24:44;;;;;;;5.45;1.00;;;7.10;99.90;;;;;;5051650;28;20075;-75
2022/02/08 08:27:12;;;;;;;5.07;1.30;;;7.70;99.90;;;;;;5050516;28;20551;-75
2022/02/08 08:29:38;;;;;;;6.10;1.25;;;7.10;99.90;;;;;;5046040;28;20553;-75
2022/02/08 08:32:05;;;;;;;7.55;1.17;;;6.80;99.90;;;;;;5043105;28;20044;-75
2022/02/08 08:34:32;;;;;;;8.07;1.35;;;7.30;99.90;;;;;;5034892;28;20474;-75
2022/02/08 08:36:57;;;;;;;8.10;1.38;;;7.10;99.90;;;;;;5051086;28;20029;-75
2022/02/08 08:39:27;;;;;;;5.15;2.28;;;7.20;99.90;;;;;;5050907;28;20031;-75
2022/02/08 08:42:47;;;;;;;10.25;1.48;;;8.10;99.90;;;;;;5050137;28;20029;-75
2022/02/08 08:52:53;;;;;;;5.75;1.15;;;7.40;99.90;;;;;;5020065;28;20059;-75
2022/02/08 08:55:19;;;;;;;5.63;1.45;;;7.40;99.90;;;;;;5051142;28;20104;-75
2022/02/08 08:57:44;;;;;;;7.35;1.45;;;7.50;99.90;;;;;;5051537;28;20035;-75
2022/02/08 09:00:13;;;;;;;3.20;0.98;;;8.50;99.90;;;;;;5050849;28;20447;-75
2022/02/08 09:02:39;;;;;;;5.25;1.15;;;7.50;99.90;;;;;;5051927;28;20105;-75
2022/02/08 09:05:09;;;;;;;10.23;1.52;;;7.50;99.90;;;;;;5055628;28;20096;-75
2022/02/08 09:07:36;;;;;;;5.90;1.00;;;7.50;99.90;;;;;;5055568;28;20021;-75
2022/02/08 09:10:03;;;;;;;7.05;1.65;;;7.70;99.90;;;;;;5054826;28;20053;-75
2022/02/08 09:26:25;;;;;;;6.68;1.10;;;8.70;99.90;;;;;;5045054;28;20037;-75
2022/02/08 09:28:56;;;;;;;5.25;1.15;;;8.70;99.90;;;;;;5034677;28;20045;-76
2022/02/08 09:31:22;;;;;;;6.57;1.25;;;8.50;99.90;;;;;;5054528;28;20032;-75
2022/02/08 09:33:49;;;;;;;6.43;1.70;;;8.80;99.90;;;;;;5055005;28;20024;-75
2022/02/08 09:36:16;;;;;;;8.00;2.03;;;8.70;99.90;;;;;;5054525;28;20074;-75
2022/02/08 09:38:42;;;;;;;7.30;2.40;;;8.60;99.90;;;;;;5054268;28;20036;-75
2022/02/08 09:41:11;;;;;;;5.80;1.30;;;8.40;99.90;;;;;;5054918;28;20485;-75
2022/02/08 09:43:37;;;;;;;8.23;1.63;;;8.50;99.90;;;;;;5054313;28;20067;-75
2022/02/08 09:46:06;;;;;;;4.47;1.08;;;8.50;99.90;;;;;;5043196;28;20025;-75
2022/02/08 09:51:00;;;;;;;5.80;1.13;;;9.20;99.90;;;;;;5054782;28;20021;-75
2022/02/08 09:53:32;;;;;;;8.27;1.23;;;8.80;99.90;;;;;;5053585;28;20040;-75
2022/02/08 09:55:58;;;;;;;7.15;1.45;;;8.60;99.90;;;;;;5053049;28;20017;-75
2022/02/08 09:58:24;;;;;;;4.63;1.30;;;9.50;99.90;;;;;;5054397;28;20110;-75
2022/02/08 10:00:49;;;;;;;4.72;1.15;;;8.60;99.90;;;;;;5048781;28;20057;-75
2022/02/08 10:03:16;;;;;;;7.50;1.23;;;8.80;99.90;;;;;;5045187;28;20603;-76
2022/02/08 10:06:01;;;;;;;7.45;1.60;;;9.90;99.90;;;;;;5034435;28;20105;-75
2022/02/08 10:08:27;;;;;;;4.68;0.80;;;9.20;99.90;;;;;;5031733;28;20502;-75
2022/02/08 10:10:52;;;;;;;10.15;1.75;;;9.00;99.90;;;;;;5034595;28;20127;-75
2022/02/08 10:22:08;;;;;;;10.27;1.77;;;9.00;99.90;;;;;;5041346;28;20444;-75
2022/02/08 10:24:37;;;;;;;15.07;2.15;;;9.10;99.90;;;;;;5053877;28;20043;-75
2022/02/08 10:27:20;;;;;;;7.22;1.20;;;9.20;99.90;;;;;;5053477;28;20033;-75
2022/02/08 10:38:10;;;;;;;8.18;1.90;;;9.50;99.90;;;;;;5052970;28;20095;-75
2022/02/08 10:40:40;;;;;;;7.10;1.33;;;9.70;99.90;;;;;;5053230;28;20378;-75
2022/02/08 10:43:18;;;;;;;6.68;1.35;;;9.60;99.90;;;;;;5052645;28;20037;-75
2022/02/08 10:45:45;;;;;;;7.63;1.35;;;9.50;99.90;;;;;;5041946;28;20490;-75
2022/02/08 10:48:11;;;;;;;7.28;1.70;;;9.50;99.90;;;;;;5053729;28;20035;-75
2022/02/08 10:50:46;;;;;;;7.50;1.60;;;9.30;99.90;;;;;;5053000;28;20021;-75
2022/02/08 10:53:13;;;;;;;5.35;1.30;;;9.40;99.90;;;;;;5052447;28;20394;-75
2022/02/08 10:55:51;;;;;;;3.92;1.20;;;9.80;99.90;;;;;;5053776;28;20023;-76
2022/02/08 11:01:03;;;;;;;11.13;1.75;;;9.40;99.90;;;;;;5052939;28;20514;-76
2022/02/08 11:03:35;;;;;;;5.38;1.15;;;9.20;99.90;;;;;;5053633;28;20059;-75
2022/02/08 11:14:25;;;;;;;7.90;2.38;;;9.40;99.90;;;;;;5033682;28;20036;-76
2022/02/08 11:25:12;;;;;;;7.10;1.35;;;9.50;99.90;;;;;;5053729;28;20103;-75
2022/02/08 11:27:47;;;;;;;7.85;1.65;;;9.10;99.90;;;;;;5051876;28;20025;-75
2022/02/08 11:30:20;;;;;;;5.82;1.73;;;9.40;99.90;;;;;;5052039;28;20063;-74
2022/02/08 11:33:05;;;;;;;5.45;1.50;;;9.10;99.90;;;;;;5052720;28;20078;-73
2022/02/08 11:57:51;;;;;;;10.63;1.48;;;8.90;99.90;;;;;;5108586;28;20254;-73
2022/02/08 12:02:41;;;;;;;7.30;1.42;;;8.50;99.90;;;;;;5093529;28;20032;-73
2022/02/08 12:05:05;;;;;;;9.40;1.77;;;8.40;99.90;;;;;;5089241;28;20404;-75
2022/02/08 12:07:44;;;;;;;5.65;1.50;;;8.30;99.90;;;;;;5088602;28;20077;-74
2022/02/08 12:10:31;;;;;;;10.63;1.75;;;8.30;99.90;;;;;;5088813;28;20016;-74
2022/02/08 12:54:12;;;;;;;9.90;1.80;;;9.20;99.90;;;;;;5087781;28;20106;-74
2022/02/08 13:04:42;;;;;;;11.07;2.30;;;9.30;99.90;;;;;;5074645;28;20035;-74
2022/02/08 13:16:27;;;;;;;8.93;2.03;;;9.50;99.90;;;;;;5074311;28;20059;-74
2022/02/08 13:18:51;;;;;;;10.68;1.95;;;8.80;99.90;;;;;;5074246;28;20028;-74
2022/02/08 14:02:52;;;;;;;8.13;1.60;;;9.60;99.90;;;;;;5093955;28;20070;-74
2022/02/08 14:07:41;;;;;;;8.48;1.92;;;9.90;99.90;;;;;;5074647;28;20028;-74
2022/02/08 14:10:30;;;;;;;9.93;1.73;;;9.80;99.90;;;;;;5080639;28;20449;-75
2022/02/08 14:18:35;;;;;;;8.52;1.70;;;10.20;99.90;;;;;;5093329;28;20161;-75
2022/02/08 14:24:32;;;;;;;6.30;1.63;;;10.40;99.90;;;;;;5072979;28;20039;-75
2022/02/08 14:37:00;;;;;;;3.88;1.13;;;9.80;99.90;;;;;;5073533;28;20051;-74
2022/02/08 15:09:16;;;;;;;10.95;2.72;;;9.90;99.90;;;;;;5074857;28;20114;-76
2022/02/08 15:12:31;;;;;;;11.93;2.10;;;9.30;99.90;;;;;;5071095;28;20048;-75
2022/02/08 15:14:31;;;;;;;11.32;1.75;;;9.40;99.90;;;;;;5066924;28;20444;-75
2022/02/08 15:16:56;;;;;;;8.57;1.85;;;9.50;99.90;;;;;;5076565;28;20040;-76
2022/02/08 15:19:22;;;;;;;7.43;1.95;;;9.30;99.90;;;;;;5079749;28;20028;-76
2022/02/08 15:21:48;;;;;;;13.85;2.17;;;9.30;99.90;;;;;;5091956;28;20107;-76
2022/02/08 15:24:14;;;;;;;13.13;2.10;;;9.20;99.90;;;;;;5087668;28;20464;-76
2022/02/08 15:26:47;;;;;;;10.23;2.90;;;8.90;99.90;;;;;;5071623;28;20020;-76
2022/02/08 15:29:14;;;;;;;8.38;1.67;;;9.20;99.90;;;;;;5072100;28;20025;-75
2022/02/08 15:31:39;;;;;;;8.63;1.85;;;9.20;99.90;;;;;;5076880;28;20020;-75
2022/02/08 15:34:05;;;;;;;7.82;1.60;;;9.50;99.90;;;;;;5090776;28;20393;-76
2022/02/08 15:36:31;;;;;;;7.28;1.60;;;9.30;99.90;;;;;;5077601;28;20504;-76
2022/02/08 15:39:05;;;;;;;14.02;2.15;;;9.00;99.90;;;;;;5076296;28;20032;-75
2022/02/08 15:41:33;;;;;;;7.78;1.55;;;9.50;99.90;;;;;;5086321;28;20028;-76
2022/02/08 15:43:59;;;;;;;4.63;1.38;;;9.40;99.90;;;;;;5088518;28;20334;-75
2022/02/08 15:46:26;;;;;;;8.30;1.50;;;9.50;99.90;;;;;;5071600;28;20116;-75
2022/02/08 15:48:54;;;;;;;8.27;1.80;;;10.40;99.90;;;;;;5071165;28;20064;-77
2022/02/08 15:51:29;;;;;;;7.93;1.67;;;9.20;99.90;;;;;;5081143;28;20074;-76
2022/02/08 16:06:59;;;;;;;8.33;1.67;;;9.50;99.90;;;;;;5042654;28;20072;-75
2022/02/08 16:20:13;;;;;;;4.82;1.75;;;9.60;99.90;;;;;;5071952;28;20043;-74
2022/02/08 16:23:13;;;;;;;6.38;1.30;;;9.20;99.90;;;;;;5088377;28;20047;-75
2022/02/08 16:57:41;;;;;;;7.00;2.35;;;9.10;99.90;;;;;;5034887;28;20478;-78
2022/02/08 17:00:09;;;;;;;13.20;3.67;;;9.00;99.90;;;;;;5034511;28;20108;-77
2022/02/08 17:02:38;;;;;;;9.98;2.28;;;8.90;99.90;;;;;;5022183;28;20030;-77
2022/02/08 17:05:04;;;;;;;12.82;2.90;;;9.00;99.90;;;;;;4997499;28;20060;-78
2022/02/08 17:07:37;;;;;;;12.77;3.85;;;9.00;99.90;;;;;;5014572;28;20068;-78
2022/02/08 17:10:04;;;;;;;12.73;2.83;;;8.90;99.90;;;;;;5013670;28;20516;-77
2022/02/08 17:18:15;;;;;;;10.38;3.55;;;8.80;99.90;;;;;;5007476;28;20044;-77
2022/02/08 17:34:46;;;;;;;9.45;2.67;;;9.10;99.90;;;;;;4999709;28;20152;-77
2022/02/08 17:48:08;;;;;;;12.68;2.67;;;9.10;99.90;;;;;;4998475;28;20556;-76
2022/02/08 17:50:34;;;;;;;12.63;2.65;;;9.10;99.90;;;;;;5013012;28;20034;-77
2022/02/08 17:53:00;;;;;;;8.70;2.63;;;8.80;99.90;;;;;;4996186;28;20038;-77
2022/02/08 17:55:26;;;;;;;8.25;2.75;;;9.30;99.90;;;;;;5013762;28;20049;-77
2022/02/08 17:57:52;;;;;;;8.65;2.22;;;8.80;99.90;;;;;;5013435;28;20109;-76
2022/02/08 18:00:19;;;;;;;10.52;2.40;;;8.70;99.90;;;;;;5014333;28;20090;-79
2022/02/08 18:02:46;;;;;;;8.18;2.30;;;9.40;99.90;;;;;;4996596;28;20026;-76
2022/02/08 18:05:12;;;;;;;13.15;2.47;;;8.90;99.90;;;;;;5014840;28;20581;-76
2022/02/08 18:07:38;;;;;;;12.95;3.25;;;8.60;99.90;;;;;;5013641;28;20041;-76
2022/02/08 18:10:06;;;;;;;10.15;2.10;;;8.70;99.90;;;;;;4995773;28;20030;-77
2022/02/08 18:12:32;;;;;;;8.57;2.17;;;8.60;99.90;;;;;;4996720;28;20034;-76
2022/02/08 18:15:01;;;;;;;9.27;2.78;;;8.90;99.90;;;;;;5014769;28;20032;-76
2022/02/08 18:17:34;;;;;;;7.75;2.47;;;8.80;99.90;;;;;;5015632;28;20101;-77
2022/02/08 18:22:52;;;;;;;9.15;2.72;;;8.60;99.90;;;;;;5014457;28;20040;-79
2022/02/08 18:28:22;;;;;;;7.50;2.25;;;8.70;99.90;;;;;;5013785;28;20034;-77
2022/02/08 19:12:22;;;;;;;6.90;2.00;;;8.90;99.90;;;;;;4997039;28;20066;-77
2022/02/08 19:22:44;;;;;;;4.35;1.55;;;8.70;99.90;;;;;;4980839;28;20117;-77
2022/02/08 19:25:10;;;;;;;3.97;1.20;;;8.80;99.90;;;;;;5016510;28;20057;-78
2022/02/08 19:27:38;;;;;;;3.95;1.35;;;9.60;99.90;;;;;;5016090;28;20105;-78
2022/02/08 19:30:04;;;;;;;5.35;1.40;;;9.10;99.90;;;;;;5017281;28;20028;-78
2022/02/08 19:32:30;;;;;;;4.75;1.45;;;8.80;99.90;;;;;;5016903;28;20025;-78
2022/02/08 19:34:56;;;;;;;3.33;1.60;;;9.30;99.90;;;;;;5000275;28;20041;-79
2022/02/08 19:37:23;;;;;;;3.40;1.50;;;8.80;99.90;;;;;;5017128;28;20026;-80
2022/02/08 19:39:49;;;;;;;3.03;1.17;;;8.80;99.90;;;;;;5015371;28;20022;-79
2022/02/08 19:42:15;;;;;;;3.08;0.90;;;8.90;99.90;;;;;;5031088;28;20036;-77
2022/02/08 19:44:42;;;;;;;1.58;0.70;;;8.70;99.90;;;;;;5019853;28;20041;-76
2022/02/08 19:47:08;;;;;;;1.67;0.68;;;8.90;99.90;;;;;;5020114;28;20068;-78
2022/02/08 19:49:35;;;;;;;1.83;0.45;;;8.70;99.90;;;;;;5019188;28;20014;-77
2022/02/08 19:52:01;;;;;;;2.47;0.52;;;8.70;99.90;;;;;;5036878;28;20026;-76
2022/02/08 19:54:30;;;;;;;2.10;0.68;;;8.80;99.90;;;;;;5036364;28;20026;-76
2022/02/08 19:57:06;;;;;;;2.58;0.88;;;8.80;99.90;;;;;;5011172;28;20026;-79
2022/02/08 19:59:36;;;;;;;1.00;0.50;;;8.60;99.90;;;;;;5016359;28;20030;-78
2022/02/08 20:02:05;;;;;;;2.33;0.90;;;8.80;99.90;;;;;;4999044;28;20056;-78
2022/02/08 20:04:33;;;;;;;0.82;0.45;;;8.80;99.90;;;;;;5016069;28;20054;-80
2022/02/08 20:06:59;;;;;;;3.17;0.60;;;8.80;99.90;;;;;;5014148;28;20034;-79
2022/02/08 20:09:25;;;;;;;3.58;0.65;;;8.70;99.90;;;;;;5015528;28;20944;-78
2022/02/08 20:11:52;;;;;;;3.42;0.98;;;8.60;99.90;;;;;;5020550;28;20018;-80
2022/02/08 20:14:18;;;;;;;3.60;0.77;;;9.50;99.90;;;;;;5002604;28;20030;-78
2022/02/08 20:16:50;;;;;;;1.50;0.70;;;8.70;99.90;;;;;;5022168;28;20025;-78
2022/02/08 20:19:19;;;;;;;2.15;0.45;;;8.60;99.90;;;;;;4998312;28;20057;-76
2022/02/08 20:22:04;;;;;;;2.85;0.60;;;8.90;99.90;;;;;;5020061;28;20037;-77
2022/02/08 20:24:30;;;;;;;1.90;0.88;;;8.70;99.90;;;;;;5001737;28;20034;-76
2022/02/08 20:29:40;;;;;;;4.07;0.63;;;8.90;99.90;;;;;;5015532;28;20037;-76
2022/02/08 20:32:06;;;;;;;2.95;0.38;;;9.50;99.90;;;;;;5015953;28;20026;-76
2022/02/08 20:34:32;;;;;;;1.00;0.40;;;8.80;99.90;;;;;;5015751;28;20038;-76
2022/02/08 20:36:59;;;;;;;1.15;0.70;;;8.70;99.90;;;;;;4997955;28;20026;-76
2022/02/08 20:39:26;;;;;;;1.92;0.40;;;8.90;99.90;;;;;;5015076;28;20021;-76
2022/02/08 20:41:53;;;;;;;1.77;0.40;;;9.20;99.90;;;;;;5015789;28;20033;-76
2022/02/08 20:44:19;;;;;;;0.80;0.22;;;9.00;99.90;;;;;;5017240;28;20150;-77
2022/02/08 20:46:59;;;;;;;0.73;0.30;;;9.00;99.90;;;;;;5002764;28;20511;-77
2022/02/08 20:49:25;;;;;;;1.17;0.38;;;8.80;99.90;;;;;;5012748;28;20076;-77
2022/02/08 20:51:50;;;;;;;2.33;0.50;;;8.80;99.90;;;;;;5023939;28;20696;-77
2022/02/08 20:54:25;;;;;;;2.72;0.68;;;9.00;99.90;;;;;;5019064;28;20025;-77
2022/02/08 20:57:01;;;;;;;2.08;0.60;;;9.20;99.90;;;;;;5015075;28;20026;-76
2022/02/08 20:59:26;;;;;;;4.50;0.90;;;8.80;99.90;;;;;;5015641;28;20026;-76
2022/02/08 21:01:52;;;;;;;2.15;0.85;;;9.00;99.90;;;;;;5014944;28;20459;-77
2022/02/08 21:06:47;;;;;;;2.42;1.05;;;8.80;99.90;;;;;;5017205;28;20026;-78
2022/02/08 21:09:14;;;;;;;1.35;0.70;;;8.70;99.90;;;;;;5014017;28;20022;-75
2022/02/08 21:11:44;;;;;;;2.20;0.90;;;8.70;99.90;;;;;;4997689;28;20026;-79
2022/02/08 21:14:13;;;;;;;3.28;1.08;;;8.60;99.90;;;;;;5014759;28;20026;-78
2022/02/08 21:16:44;;;;;;;1.85;0.90;;;8.60;99.90;;;;;;5014691;28;20026;-78
2022/02/08 21:19:12;;;;;;;2.67;0.77;;;8.50;99.90;;;;;;5015728;28;20021;-78
2022/02/08 21:21:38;;;;;;;1.48;0.90;;;9.10;99.90;;;;;;5014006;28;20394;-78